sensor_id;sensor_type;location;lat;lon;timestamp;P1;durP1;ratioP1;P2;durP2;ratioP2
54307;SDS011;40208;39.778;2.710;2024-03-25T00:01:55;12.35;;;2.45;;
54307;SDS011;40208;39.778;2.710;2024-03-25T00:04:39;21.27;;;3.20;;
54307;SDS011;40208;39.778;2.710;2024-03-25T00:07:24;10.73;;;2.35;;
54307;SDS011;40208;39.778;2.710;2024-03-25T00:10:09;20.48;;;3.20;;
54307;SDS011;40208;39.778;2.710;2024-03-25T00:12:54;14.85;;;2.65;;
54307;SDS011;40208;39.778;2.710;2024-03-25T00:15:41;14.68;;;2.38;;
54307;SDS011;40208;39.778;2.710;2024-03-25T00:18:26;21.98;;;3.15;;
54307;SDS011;40208;39.778;2.710;2024-03-25T00:21:11;13.52;;;2.50;;
54307;SDS011;40208;39.778;2.710;2024-03-25T00:23:56;17.67;;;2.70;;
54307;SDS011;40208;39.778;2.710;2024-03-25T00:26:41;14.90;;;2.60;;
54307;SDS011;40208;39.778;2.710;2024-03-25T00:29:26;14.48;;;2.90;;
54307;SDS011;40208;39.778;2.710;2024-03-25T00:32:11;13.63;;;3.00;;
54307;SDS011;40208;39.778;2.710;2024-03-25T00:34:56;13.60;;;2.10;;
54307;SDS011;40208;39.778;2.710;2024-03-25T00:37:41;9.63;;;1.92;;
54307;SDS011;40208;39.778;2.710;2024-03-25T00:40:26;13.35;;;2.45;;
54307;SDS011;40208;39.778;2.710;2024-03-25T00:43:11;9.82;;;2.60;;
54307;SDS011;40208;39.778;2.710;2024-03-25T00:45:56;13.90;;;2.13;;
54307;SDS011;40208;39.778;2.710;2024-03-25T00:48:41;13.70;;;2.70;;
54307;SDS011;40208;39.778;2.710;2024-03-25T00:51:27;10.10;;;1.98;;
54307;SDS011;40208;39.778;2.710;2024-03-25T00:54:11;16.48;;;2.88;;
54307;SDS011;40208;39.778;2.710;2024-03-25T00:56:56;12.30;;;2.28;;
54307;SDS011;40208;39.778;2.710;2024-03-25T00:59:41;16.15;;;2.85;;
54307;SDS011;40208;39.778;2.710;2024-03-25T01:02:26;17.38;;;2.58;;
54307;SDS011;40208;39.778;2.710;2024-03-25T01:05:12;10.90;;;2.40;;
54307;SDS011;40208;39.778;2.710;2024-03-25T01:07:57;10.35;;;3.30;;
54307;SDS011;40208;39.778;2.710;2024-03-25T01:10:41;12.90;;;2.85;;
54307;SDS011;40208;39.778;2.710;2024-03-25T01:13:26;11.63;;;2.72;;
54307;SDS011;40208;39.778;2.710;2024-03-25T01:16:11;13.52;;;2.63;;
54307;SDS011;40208;39.778;2.710;2024-03-25T01:18:56;15.85;;;3.15;;
54307;SDS011;40208;39.778;2.710;2024-03-25T01:21:42;13.32;;;2.85;;
54307;SDS011;40208;39.778;2.710;2024-03-25T01:24:28;11.93;;;2.20;;
54307;SDS011;40208;39.778;2.710;2024-03-25T01:27:13;16.90;;;2.70;;
54307;SDS011;40208;39.778;2.710;2024-03-25T01:29:58;8.45;;;1.92;;
54307;SDS011;40208;39.778;2.710;2024-03-25T01:32:42;15.75;;;3.75;;
54307;SDS011;40208;39.778;2.710;2024-03-25T01:35:27;14.90;;;2.03;;
54307;SDS011;40208;39.778;2.710;2024-03-25T01:38:12;10.88;;;2.53;;
54307;SDS011;40208;39.778;2.710;2024-03-25T01:41:19;12.18;;;2.85;;
54307;SDS011;40208;39.778;2.710;2024-03-25T01:44:07;12.13;;;2.13;;
54307;SDS011;40208;39.778;2.710;2024-03-25T01:46:52;11.07;;;2.85;;
54307;SDS011;40208;39.778;2.710;2024-03-25T01:49:37;15.77;;;2.80;;
54307;SDS011;40208;39.778;2.710;2024-03-25T01:52:22;8.50;;;2.22;;
54307;SDS011;40208;39.778;2.710;2024-03-25T01:55:08;14.27;;;2.67;;
54307;SDS011;40208;39.778;2.710;2024-03-25T01:57:57;13.07;;;2.67;;
54307;SDS011;40208;39.778;2.710;2024-03-25T02:00:42;9.43;;;2.00;;
54307;SDS011;40208;39.778;2.710;2024-03-25T02:03:27;13.73;;;2.45;;
54307;SDS011;40208;39.778;2.710;2024-03-25T02:06:13;15.07;;;2.95;;
54307;SDS011;40208;39.778;2.710;2024-03-25T02:09:00;17.23;;;2.63;;
54307;SDS011;40208;39.778;2.710;2024-03-25T02:11:48;16.05;;;4.00;;
54307;SDS011;40208;39.778;2.710;2024-03-25T02:14:33;13.10;;;2.30;;
54307;SDS011;40208;39.778;2.710;2024-03-25T02:17:18;8.35;;;2.47;;
54307;SDS011;40208;39.778;2.710;2024-03-25T02:20:03;14.38;;;2.45;;
54307;SDS011;40208;39.778;2.710;2024-03-25T02:22:49;13.43;;;2.75;;
54307;SDS011;40208;39.778;2.710;2024-03-25T02:25:34;15.38;;;3.13;;
54307;SDS011;40208;39.778;2.710;2024-03-25T02:28:19;11.90;;;2.42;;
54307;SDS011;40208;39.778;2.710;2024-03-25T02:31:04;14.75;;;2.88;;
54307;SDS011;40208;39.778;2.710;2024-03-25T02:33:49;13.45;;;2.67;;
54307;SDS011;40208;39.778;2.710;2024-03-25T02:36:33;10.40;;;2.60;;
54307;SDS011;40208;39.778;2.710;2024-03-25T02:39:18;14.07;;;2.83;;
54307;SDS011;40208;39.778;2.710;2024-03-25T02:42:04;11.55;;;2.38;;
54307;SDS011;40208;39.778;2.710;2024-03-25T02:44:49;12.20;;;2.47;;
54307;SDS011;40208;39.778;2.710;2024-03-25T02:47:34;11.15;;;2.60;;
54307;SDS011;40208;39.778;2.710;2024-03-25T02:50:19;10.95;;;2.58;;
54307;SDS011;40208;39.778;2.710;2024-03-25T02:53:04;16.30;;;2.75;;
54307;SDS011;40208;39.778;2.710;2024-03-25T02:55:49;14.30;;;3.03;;
54307;SDS011;40208;39.778;2.710;2024-03-25T02:58:34;14.75;;;2.97;;
54307;SDS011;40208;39.778;2.710;2024-03-25T03:01:19;10.35;;;2.30;;
54307;SDS011;40208;39.778;2.710;2024-03-25T03:04:03;11.52;;;2.65;;
54307;SDS011;40208;39.778;2.710;2024-03-25T03:06:48;17.77;;;3.28;;
54307;SDS011;40208;39.778;2.710;2024-03-25T03:09:33;19.08;;;3.05;;
54307;SDS011;40208;39.778;2.710;2024-03-25T03:12:18;18.70;;;2.88;;
54307;SDS011;40208;39.778;2.710;2024-03-25T03:15:03;14.45;;;2.78;;
54307;SDS011;40208;39.778;2.710;2024-03-25T03:17:49;14.02;;;2.88;;
54307;SDS011;40208;39.778;2.710;2024-03-25T03:20:33;13.90;;;3.60;;
54307;SDS011;40208;39.778;2.710;2024-03-25T03:23:19;12.82;;;2.80;;
54307;SDS011;40208;39.778;2.710;2024-03-25T03:26:03;12.15;;;2.42;;
54307;SDS011;40208;39.778;2.710;2024-03-25T03:28:48;10.32;;;2.55;;
54307;SDS011;40208;39.778;2.710;2024-03-25T03:31:32;14.77;;;2.92;;
54307;SDS011;40208;39.778;2.710;2024-03-25T03:34:17;12.90;;;2.47;;
54307;SDS011;40208;39.778;2.710;2024-03-25T03:37:02;20.10;;;2.90;;
54307;SDS011;40208;39.778;2.710;2024-03-25T03:39:47;13.68;;;2.42;;
54307;SDS011;40208;39.778;2.710;2024-03-25T03:42:32;14.82;;;2.58;;
54307;SDS011;40208;39.778;2.710;2024-03-25T03:45:17;14.80;;;3.42;;
54307;SDS011;40208;39.778;2.710;2024-03-25T03:48:02;12.40;;;2.80;;
54307;SDS011;40208;39.778;2.710;2024-03-25T03:50:46;14.00;;;3.03;;
54307;SDS011;40208;39.778;2.710;2024-03-25T03:53:32;14.88;;;2.83;;
54307;SDS011;40208;39.778;2.710;2024-03-25T03:56:17;12.82;;;2.80;;
54307;SDS011;40208;39.778;2.710;2024-03-25T03:59:01;18.10;;;3.10;;
54307;SDS011;40208;39.778;2.710;2024-03-25T04:01:46;15.05;;;2.38;;
54307;SDS011;40208;39.778;2.710;2024-03-25T04:04:31;10.40;;;3.00;;
54307;SDS011;40208;39.778;2.710;2024-03-25T04:07:16;11.05;;;2.53;;
54307;SDS011;40208;39.778;2.710;2024-03-25T04:10:02;13.68;;;2.90;;
54307;SDS011;40208;39.778;2.710;2024-03-25T04:12:48;12.07;;;2.65;;
54307;SDS011;40208;39.778;2.710;2024-03-25T04:15:33;10.45;;;2.30;;
54307;SDS011;40208;39.778;2.710;2024-03-25T04:18:18;13.02;;;2.30;;
54307;SDS011;40208;39.778;2.710;2024-03-25T04:21:03;19.45;;;2.42;;
54307;SDS011;40208;39.778;2.710;2024-03-25T04:23:48;10.98;;;2.33;;
54307;SDS011;40208;39.778;2.710;2024-03-25T04:26:33;9.13;;;1.83;;
54307;SDS011;40208;39.778;2.710;2024-03-25T04:29:18;12.18;;;1.80;;
54307;SDS011;40208;39.778;2.710;2024-03-25T04:32:03;8.07;;;1.85;;
54307;SDS011;40208;39.778;2.710;2024-03-25T04:34:48;7.93;;;1.75;;
54307;SDS011;40208;39.778;2.710;2024-03-25T04:37:33;8.43;;;1.88;;
54307;SDS011;40208;39.778;2.710;2024-03-25T04:40:18;10.73;;;2.25;;
54307;SDS011;40208;39.778;2.710;2024-03-25T04:43:04;6.30;;;1.50;;
54307;SDS011;40208;39.778;2.710;2024-03-25T04:45:49;14.18;;;2.15;;
54307;SDS011;40208;39.778;2.710;2024-03-25T04:48:34;13.60;;;2.25;;
54307;SDS011;40208;39.778;2.710;2024-03-25T04:51:19;7.80;;;1.73;;
54307;SDS011;40208;39.778;2.710;2024-03-25T04:54:04;9.77;;;2.30;;
54307;SDS011;40208;39.778;2.710;2024-03-25T04:56:49;10.75;;;2.47;;
54307;SDS011;40208;39.778;2.710;2024-03-25T04:59:34;9.10;;;1.95;;
54307;SDS011;40208;39.778;2.710;2024-03-25T05:02:19;10.60;;;2.20;;
54307;SDS011;40208;39.778;2.710;2024-03-25T05:05:04;10.57;;;2.10;;
54307;SDS011;40208;39.778;2.710;2024-03-25T05:07:48;8.48;;;2.03;;
54307;SDS011;40208;39.778;2.710;2024-03-25T05:10:33;13.57;;;2.83;;
54307;SDS011;40208;39.778;2.710;2024-03-25T05:13:18;17.00;;;2.45;;
54307;SDS011;40208;39.778;2.710;2024-03-25T05:16:03;11.00;;;3.22;;
54307;SDS011;40208;39.778;2.710;2024-03-25T05:18:48;9.48;;;2.17;;
54307;SDS011;40208;39.778;2.710;2024-03-25T05:21:33;16.75;;;2.67;;
54307;SDS011;40208;39.778;2.710;2024-03-25T05:24:18;15.48;;;2.38;;
54307;SDS011;40208;39.778;2.710;2024-03-25T05:27:03;8.80;;;2.22;;
54307;SDS011;40208;39.778;2.710;2024-03-25T05:29:48;10.75;;;2.53;;
54307;SDS011;40208;39.778;2.710;2024-03-25T05:32:34;13.05;;;2.78;;
54307;SDS011;40208;39.778;2.710;2024-03-25T05:35:19;17.30;;;2.00;;
54307;SDS011;40208;39.778;2.710;2024-03-25T05:38:05;11.60;;;2.40;;
54307;SDS011;40208;39.778;2.710;2024-03-25T05:40:50;12.45;;;2.83;;
54307;SDS011;40208;39.778;2.710;2024-03-25T05:43:35;11.90;;;2.47;;
54307;SDS011;40208;39.778;2.710;2024-03-25T05:46:20;14.65;;;2.60;;
54307;SDS011;40208;39.778;2.710;2024-03-25T05:49:05;18.63;;;2.55;;
54307;SDS011;40208;39.778;2.710;2024-03-25T05:51:50;12.93;;;2.50;;
54307;SDS011;40208;39.778;2.710;2024-03-25T05:54:35;12.13;;;2.28;;
54307;SDS011;40208;39.778;2.710;2024-03-25T05:57:19;8.55;;;1.83;;
54307;SDS011;40208;39.778;2.710;2024-03-25T06:00:05;12.95;;;2.35;;
54307;SDS011;40208;39.778;2.710;2024-03-25T06:02:52;8.88;;;2.10;;
54307;SDS011;40208;39.778;2.710;2024-03-25T06:05:38;13.38;;;2.53;;
54307;SDS011;40208;39.778;2.710;2024-03-25T06:08:23;15.15;;;3.00;;
54307;SDS011;40208;39.778;2.710;2024-03-25T06:11:11;14.93;;;3.35;;
54307;SDS011;40208;39.778;2.710;2024-03-25T06:13:55;17.88;;;3.22;;
54307;SDS011;40208;39.778;2.710;2024-03-25T06:16:40;14.68;;;3.97;;
54307;SDS011;40208;39.778;2.710;2024-03-25T06:19:27;9.68;;;3.05;;
54307;SDS011;40208;39.778;2.710;2024-03-25T06:22:12;8.48;;;3.05;;
54307;SDS011;40208;39.778;2.710;2024-03-25T06:24:56;5.55;;;1.50;;
54307;SDS011;40208;39.778;2.710;2024-03-25T06:27:42;3.08;;;1.67;;
54307;SDS011;40208;39.778;2.710;2024-03-25T06:30:28;5.10;;;1.25;;
54307;SDS011;40208;39.778;2.710;2024-03-25T06:33:31;6.30;;;1.60;;
54307;SDS011;40208;39.778;2.710;2024-03-25T06:36:35;9.55;;;1.48;;
54307;SDS011;40208;39.778;2.710;2024-03-25T06:39:20;7.13;;;1.65;;
54307;SDS011;40208;39.778;2.710;2024-03-25T06:42:05;13.77;;;1.85;;
54307;SDS011;40208;39.778;2.710;2024-03-25T06:44:51;9.43;;;2.10;;
54307;SDS011;40208;39.778;2.710;2024-03-25T06:47:35;7.05;;;1.90;;
54307;SDS011;40208;39.778;2.710;2024-03-25T06:50:20;11.73;;;2.10;;
54307;SDS011;40208;39.778;2.710;2024-03-25T06:53:05;10.68;;;1.67;;
54307;SDS011;40208;39.778;2.710;2024-03-25T06:55:56;8.43;;;2.05;;
54307;SDS011;40208;39.778;2.710;2024-03-25T06:58:45;9.77;;;2.30;;
54307;SDS011;40208;39.778;2.710;2024-03-25T07:01:30;8.50;;;1.98;;
54307;SDS011;40208;39.778;2.710;2024-03-25T07:04:15;10.57;;;2.40;;
54307;SDS011;40208;39.778;2.710;2024-03-25T07:07:00;16.63;;;2.75;;
54307;SDS011;40208;39.778;2.710;2024-03-25T07:09:44;9.38;;;2.42;;
54307;SDS011;40208;39.778;2.710;2024-03-25T07:12:29;11.48;;;2.67;;
54307;SDS011;40208;39.778;2.710;2024-03-25T07:15:14;8.43;;;2.22;;
54307;SDS011;40208;39.778;2.710;2024-03-25T07:18:00;14.25;;;3.60;;
54307;SDS011;40208;39.778;2.710;2024-03-25T07:20:45;10.98;;;2.30;;
54307;SDS011;40208;39.778;2.710;2024-03-25T07:23:30;9.88;;;2.15;;
54307;SDS011;40208;39.778;2.710;2024-03-25T07:26:15;8.15;;;2.22;;
54307;SDS011;40208;39.778;2.710;2024-03-25T07:28:59;27.38;;;10.98;;
54307;SDS011;40208;39.778;2.710;2024-03-25T07:31:44;25.38;;;11.00;;
54307;SDS011;40208;39.778;2.710;2024-03-25T07:34:29;20.27;;;8.02;;
54307;SDS011;40208;39.778;2.710;2024-03-25T07:37:14;20.95;;;8.88;;
54307;SDS011;40208;39.778;2.710;2024-03-25T07:39:59;68.30;;;30.38;;
54307;SDS011;40208;39.778;2.710;2024-03-25T07:42:44;30.25;;;12.98;;
54307;SDS011;40208;39.778;2.710;2024-03-25T07:45:29;54.35;;;26.20;;
54307;SDS011;40208;39.778;2.710;2024-03-25T07:48:13;43.90;;;21.08;;
54307;SDS011;40208;39.778;2.710;2024-03-25T07:50:58;29.35;;;12.07;;
54307;SDS011;40208;39.778;2.710;2024-03-25T07:53:42;23.67;;;10.15;;
54307;SDS011;40208;39.778;2.710;2024-03-25T07:56:27;22.73;;;9.98;;
54307;SDS011;40208;39.778;2.710;2024-03-25T07:59:13;19.63;;;6.65;;
54307;SDS011;40208;39.778;2.710;2024-03-25T08:01:57;14.88;;;7.47;;
54307;SDS011;40208;39.778;2.710;2024-03-25T08:04:42;15.48;;;6.40;;
54307;SDS011;40208;39.778;2.710;2024-03-25T08:07:27;11.18;;;4.20;;
54307;SDS011;40208;39.778;2.710;2024-03-25T08:10:12;16.40;;;4.80;;
54307;SDS011;40208;39.778;2.710;2024-03-25T08:12:57;16.95;;;4.63;;
54307;SDS011;40208;39.778;2.710;2024-03-25T08:15:41;19.15;;;5.10;;
54307;SDS011;40208;39.778;2.710;2024-03-25T08:18:26;16.27;;;5.30;;
54307;SDS011;40208;39.778;2.710;2024-03-25T08:21:11;11.95;;;3.90;;
54307;SDS011;40208;39.778;2.710;2024-03-25T08:23:56;9.07;;;2.90;;
54307;SDS011;40208;39.778;2.710;2024-03-25T08:26:41;9.38;;;2.58;;
54307;SDS011;40208;39.778;2.710;2024-03-25T08:29:26;5.78;;;1.65;;
54307;SDS011;40208;39.778;2.710;2024-03-25T08:32:11;7.78;;;2.33;;
54307;SDS011;40208;39.778;2.710;2024-03-25T08:34:55;13.35;;;2.35;;
54307;SDS011;40208;39.778;2.710;2024-03-25T08:37:40;7.38;;;2.20;;
54307;SDS011;40208;39.778;2.710;2024-03-25T08:40:25;7.03;;;2.30;;
54307;SDS011;40208;39.778;2.710;2024-03-25T08:43:10;10.77;;;2.20;;
54307;SDS011;40208;39.778;2.710;2024-03-25T08:45:55;11.10;;;3.10;;
54307;SDS011;40208;39.778;2.710;2024-03-25T08:48:39;12.25;;;2.55;;
54307;SDS011;40208;39.778;2.710;2024-03-25T08:51:24;12.45;;;2.25;;
54307;SDS011;40208;39.778;2.710;2024-03-25T08:54:09;40.00;;;3.58;;
54307;SDS011;40208;39.778;2.710;2024-03-25T08:56:54;36.17;;;3.88;;
54307;SDS011;40208;39.778;2.710;2024-03-25T08:59:39;20.55;;;2.83;;
54307;SDS011;40208;39.778;2.710;2024-03-25T09:02:23;17.50;;;4.28;;
54307;SDS011;40208;39.778;2.710;2024-03-25T09:05:08;14.73;;;3.58;;
54307;SDS011;40208;39.778;2.710;2024-03-25T09:07:54;15.88;;;2.88;;
54307;SDS011;40208;39.778;2.710;2024-03-25T09:10:39;12.18;;;2.75;;
54307;SDS011;40208;39.778;2.710;2024-03-25T09:13:45;7.25;;;2.40;;
54307;SDS011;40208;39.778;2.710;2024-03-25T09:16:30;17.70;;;2.85;;
54307;SDS011;40208;39.778;2.710;2024-03-25T09:19:15;21.75;;;3.28;;
54307;SDS011;40208;39.778;2.710;2024-03-25T09:22:00;11.57;;;2.42;;
54307;SDS011;40208;39.778;2.710;2024-03-25T09:24:45;14.48;;;2.72;;
54307;SDS011;40208;39.778;2.710;2024-03-25T09:27:29;14.98;;;3.40;;
54307;SDS011;40208;39.778;2.710;2024-03-25T09:30:14;12.10;;;2.10;;
54307;SDS011;40208;39.778;2.710;2024-03-25T09:32:59;12.93;;;2.50;;
54307;SDS011;40208;39.778;2.710;2024-03-25T09:35:44;9.82;;;2.80;;
54307;SDS011;40208;39.778;2.710;2024-03-25T09:38:29;13.32;;;3.15;;
54307;SDS011;40208;39.778;2.710;2024-03-25T09:41:14;19.55;;;3.88;;
54307;SDS011;40208;39.778;2.710;2024-03-25T09:43:59;22.52;;;4.57;;
54307;SDS011;40208;39.778;2.710;2024-03-25T09:46:44;13.70;;;3.60;;
54307;SDS011;40208;39.778;2.710;2024-03-25T09:49:29;20.13;;;3.97;;
54307;SDS011;40208;39.778;2.710;2024-03-25T09:52:16;15.88;;;4.57;;
54307;SDS011;40208;39.778;2.710;2024-03-25T09:55:01;15.95;;;4.40;;
54307;SDS011;40208;39.778;2.710;2024-03-25T09:57:46;20.33;;;5.85;;
54307;SDS011;40208;39.778;2.710;2024-03-25T10:00:31;24.77;;;6.63;;
54307;SDS011;40208;39.778;2.710;2024-03-25T10:03:16;20.75;;;6.57;;
54307;SDS011;40208;39.778;2.710;2024-03-25T10:06:01;18.45;;;4.63;;
54307;SDS011;40208;39.778;2.710;2024-03-25T10:08:46;30.80;;;7.20;;
54307;SDS011;40208;39.778;2.710;2024-03-25T10:11:31;22.73;;;6.28;;
54307;SDS011;40208;39.778;2.710;2024-03-25T10:14:19;22.48;;;6.32;;
54307;SDS011;40208;39.778;2.710;2024-03-25T10:17:04;30.27;;;8.35;;
54307;SDS011;40208;39.778;2.710;2024-03-25T10:19:49;15.90;;;5.50;;
54307;SDS011;40208;39.778;2.710;2024-03-25T10:22:40;24.10;;;4.93;;
54307;SDS011;40208;39.778;2.710;2024-03-25T10:25:29;20.60;;;5.43;;
54307;SDS011;40208;39.778;2.710;2024-03-25T10:28:15;19.92;;;5.22;;
54307;SDS011;40208;39.778;2.710;2024-03-25T10:31:03;22.73;;;6.93;;
54307;SDS011;40208;39.778;2.710;2024-03-25T10:33:48;14.02;;;5.47;;
54307;SDS011;40208;39.778;2.710;2024-03-25T10:36:33;20.10;;;4.32;;
54307;SDS011;40208;39.778;2.710;2024-03-25T10:39:19;17.85;;;3.45;;
54307;SDS011;40208;39.778;2.710;2024-03-25T10:42:09;15.13;;;3.75;;
54307;SDS011;40208;39.778;2.710;2024-03-25T10:44:58;14.20;;;3.63;;
54307;SDS011;40208;39.778;2.710;2024-03-25T10:47:43;14.52;;;4.03;;
54307;SDS011;40208;39.778;2.710;2024-03-25T10:50:28;12.50;;;3.28;;
54307;SDS011;40208;39.778;2.710;2024-03-25T10:53:14;18.05;;;3.85;;
54307;SDS011;40208;39.778;2.710;2024-03-25T10:56:02;17.17;;;3.45;;
54307;SDS011;40208;39.778;2.710;2024-03-25T10:58:49;14.07;;;3.70;;
54307;SDS011;40208;39.778;2.710;2024-03-25T11:01:34;11.73;;;3.42;;
54307;SDS011;40208;39.778;2.710;2024-03-25T11:04:20;15.15;;;2.75;;
54307;SDS011;40208;39.778;2.710;2024-03-25T11:07:09;10.20;;;3.35;;
54307;SDS011;40208;39.778;2.710;2024-03-25T11:10:01;18.33;;;2.63;;
54307;SDS011;40208;39.778;2.710;2024-03-25T11:12:50;21.83;;;3.17;;
54307;SDS011;40208;39.778;2.710;2024-03-25T11:15:35;18.23;;;2.88;;
54307;SDS011;40208;39.778;2.710;2024-03-25T11:18:23;12.98;;;2.85;;
54307;SDS011;40208;39.778;2.710;2024-03-25T11:21:09;13.90;;;3.05;;
54307;SDS011;40208;39.778;2.710;2024-03-25T11:24:05;13.70;;;3.85;;
54307;SDS011;40208;39.778;2.710;2024-03-25T11:26:51;10.55;;;3.05;;
54307;SDS011;40208;39.778;2.710;2024-03-25T11:29:37;21.10;;;4.30;;
54307;SDS011;40208;39.778;2.710;2024-03-25T11:32:22;16.80;;;3.70;;
54307;SDS011;40208;39.778;2.710;2024-03-25T11:35:07;13.25;;;3.22;;
54307;SDS011;40208;39.778;2.710;2024-03-25T11:37:52;13.75;;;3.58;;
54307;SDS011;40208;39.778;2.710;2024-03-25T11:40:37;14.93;;;3.30;;
54307;SDS011;40208;39.778;2.710;2024-03-25T11:43:25;19.13;;;4.32;;
54307;SDS011;40208;39.778;2.710;2024-03-25T11:46:10;16.67;;;3.70;;
54307;SDS011;40208;39.778;2.710;2024-03-25T11:48:55;26.20;;;4.85;;
54307;SDS011;40208;39.778;2.710;2024-03-25T11:51:42;12.40;;;3.78;;
54307;SDS011;40208;39.778;2.710;2024-03-25T11:54:29;11.98;;;3.03;;
54307;SDS011;40208;39.778;2.710;2024-03-25T11:57:14;17.98;;;4.20;;
54307;SDS011;40208;39.778;2.710;2024-03-25T11:59:59;10.55;;;3.60;;
54307;SDS011;40208;39.778;2.710;2024-03-25T12:02:44;13.70;;;3.60;;
54307;SDS011;40208;39.778;2.710;2024-03-25T12:05:30;16.70;;;3.17;;
54307;SDS011;40208;39.778;2.710;2024-03-25T12:08:15;11.95;;;3.17;;
54307;SDS011;40208;39.778;2.710;2024-03-25T12:10:59;13.30;;;3.60;;
54307;SDS011;40208;39.778;2.710;2024-03-25T12:14:02;17.92;;;3.83;;
54307;SDS011;40208;39.778;2.710;2024-03-25T12:16:48;18.20;;;4.93;;
54307;SDS011;40208;39.778;2.710;2024-03-25T12:19:34;13.68;;;4.35;;
54307;SDS011;40208;39.778;2.710;2024-03-25T12:22:19;51.92;;;17.23;;
54307;SDS011;40208;39.778;2.710;2024-03-25T12:25:04;126.75;;;49.95;;
54307;SDS011;40208;39.778;2.710;2024-03-25T12:27:50;109.63;;;44.88;;
54307;SDS011;40208;39.778;2.710;2024-03-25T12:30:48;92.50;;;37.65;;
54307;SDS011;40208;39.778;2.710;2024-03-25T12:33:41;95.65;;;37.65;;
54307;SDS011;40208;39.778;2.710;2024-03-25T12:36:26;87.80;;;35.65;;
54307;SDS011;40208;39.778;2.710;2024-03-25T12:39:16;72.80;;;29.13;;
54307;SDS011;40208;39.778;2.710;2024-03-25T12:42:05;70.18;;;28.75;;
54307;SDS011;40208;39.778;2.710;2024-03-25T12:44:51;57.67;;;21.77;;
54307;SDS011;40208;39.778;2.710;2024-03-25T12:47:35;39.85;;;15.32;;
54307;SDS011;40208;39.778;2.710;2024-03-25T12:50:20;43.55;;;16.40;;
54307;SDS011;40208;39.778;2.710;2024-03-25T12:53:08;36.70;;;14.38;;
54307;SDS011;40208;39.778;2.710;2024-03-25T12:55:53;36.22;;;14.55;;
54307;SDS011;40208;39.778;2.710;2024-03-25T12:58:38;37.78;;;14.40;;
54307;SDS011;40208;39.778;2.710;2024-03-25T13:01:23;36.85;;;13.90;;
54307;SDS011;40208;39.778;2.710;2024-03-25T13:04:07;30.83;;;11.82;;
54307;SDS011;40208;39.778;2.710;2024-03-25T13:06:52;29.67;;;10.75;;
54307;SDS011;40208;39.778;2.710;2024-03-25T13:09:37;24.85;;;9.52;;
54307;SDS011;40208;39.778;2.710;2024-03-25T13:12:22;26.23;;;9.75;;
54307;SDS011;40208;39.778;2.710;2024-03-25T13:15:07;21.17;;;6.90;;
54307;SDS011;40208;39.778;2.710;2024-03-25T13:17:52;24.45;;;8.63;;
54307;SDS011;40208;39.778;2.710;2024-03-25T13:20:37;20.95;;;8.88;;
54307;SDS011;40208;39.778;2.710;2024-03-25T13:23:22;22.45;;;8.98;;
54307;SDS011;40208;39.778;2.710;2024-03-25T13:26:07;17.33;;;7.45;;
54307;SDS011;40208;39.778;2.710;2024-03-25T13:28:53;18.83;;;6.45;;
54307;SDS011;40208;39.778;2.710;2024-03-25T13:31:38;25.58;;;6.32;;
54307;SDS011;40208;39.778;2.710;2024-03-25T13:34:23;23.40;;;8.20;;
54307;SDS011;40208;39.778;2.710;2024-03-25T13:37:08;22.20;;;6.68;;
54307;SDS011;40208;39.778;2.710;2024-03-25T13:39:53;18.38;;;7.95;;
54307;SDS011;40208;39.778;2.710;2024-03-25T13:42:38;20.92;;;7.68;;
54307;SDS011;40208;39.778;2.710;2024-03-25T13:45:23;17.08;;;6.45;;
54307;SDS011;40208;39.778;2.710;2024-03-25T13:48:08;17.75;;;4.97;;
54307;SDS011;40208;39.778;2.710;2024-03-25T13:50:53;15.90;;;5.57;;
54307;SDS011;40208;39.778;2.710;2024-03-25T13:53:39;16.90;;;6.13;;
54307;SDS011;40208;39.778;2.710;2024-03-25T13:56:24;20.85;;;7.00;;
54307;SDS011;40208;39.778;2.710;2024-03-25T13:59:09;16.48;;;5.55;;
54307;SDS011;40208;39.778;2.710;2024-03-25T14:01:54;13.77;;;5.13;;
54307;SDS011;40208;39.778;2.710;2024-03-25T14:04:39;10.88;;;4.10;;
54307;SDS011;40208;39.778;2.710;2024-03-25T14:07:24;14.65;;;5.10;;
54307;SDS011;40208;39.778;2.710;2024-03-25T14:10:09;11.27;;;4.57;;
54307;SDS011;40208;39.778;2.710;2024-03-25T14:12:55;10.55;;;4.47;;
54307;SDS011;40208;39.778;2.710;2024-03-25T14:15:40;9.80;;;4.30;;
54307;SDS011;40208;39.778;2.710;2024-03-25T14:18:25;11.73;;;5.05;;
54307;SDS011;40208;39.778;2.710;2024-03-25T14:21:11;13.48;;;4.35;;
54307;SDS011;40208;39.778;2.710;2024-03-25T14:23:56;14.70;;;4.88;;
54307;SDS011;40208;39.778;2.710;2024-03-25T14:26:41;14.90;;;4.63;;
54307;SDS011;40208;39.778;2.710;2024-03-25T14:29:26;11.60;;;4.18;;
54307;SDS011;40208;39.778;2.710;2024-03-25T14:32:11;18.48;;;5.50;;
54307;SDS011;40208;39.778;2.710;2024-03-25T14:34:55;15.32;;;5.70;;
54307;SDS011;40208;39.778;2.710;2024-03-25T14:37:40;15.20;;;5.50;;
54307;SDS011;40208;39.778;2.710;2024-03-25T14:40:25;17.70;;;4.88;;
54307;SDS011;40208;39.778;2.710;2024-03-25T14:43:10;17.67;;;4.95;;
54307;SDS011;40208;39.778;2.710;2024-03-25T14:45:55;11.75;;;4.53;;
54307;SDS011;40208;39.778;2.710;2024-03-25T14:48:40;12.45;;;3.65;;
54307;SDS011;40208;39.778;2.710;2024-03-25T14:51:25;18.65;;;3.88;;
54307;SDS011;40208;39.778;2.710;2024-03-25T14:54:10;14.38;;;3.28;;
54307;SDS011;40208;39.778;2.710;2024-03-25T14:56:55;11.63;;;3.10;;
54307;SDS011;40208;39.778;2.710;2024-03-25T14:59:40;13.95;;;3.00;;
54307;SDS011;40208;39.778;2.710;2024-03-25T15:02:24;13.35;;;3.55;;
54307;SDS011;40208;39.778;2.710;2024-03-25T15:05:09;12.15;;;3.10;;
54307;SDS011;40208;39.778;2.710;2024-03-25T15:07:55;12.13;;;3.42;;
54307;SDS011;40208;39.778;2.710;2024-03-25T15:10:40;12.48;;;4.18;;
54307;SDS011;40208;39.778;2.710;2024-03-25T15:13:24;16.33;;;4.45;;
54307;SDS011;40208;39.778;2.710;2024-03-25T15:16:09;15.23;;;4.18;;
54307;SDS011;40208;39.778;2.710;2024-03-25T15:18:54;11.80;;;2.78;;
54307;SDS011;40208;39.778;2.710;2024-03-25T15:21:39;10.48;;;3.75;;
54307;SDS011;40208;39.778;2.710;2024-03-25T15:24:24;9.57;;;3.30;;
54307;SDS011;40208;39.778;2.710;2024-03-25T15:27:09;12.80;;;4.10;;
54307;SDS011;40208;39.778;2.710;2024-03-25T15:29:54;12.63;;;3.80;;
54307;SDS011;40208;39.778;2.710;2024-03-25T15:32:38;14.60;;;3.42;;
54307;SDS011;40208;39.778;2.710;2024-03-25T15:35:23;11.30;;;2.70;;
54307;SDS011;40208;39.778;2.710;2024-03-25T15:38:08;11.63;;;2.97;;
54307;SDS011;40208;39.778;2.710;2024-03-25T15:40:53;8.35;;;2.33;;
54307;SDS011;40208;39.778;2.710;2024-03-25T15:43:38;9.60;;;2.25;;
54307;SDS011;40208;39.778;2.710;2024-03-25T15:46:23;18.20;;;2.50;;
54307;SDS011;40208;39.778;2.710;2024-03-25T15:49:08;11.27;;;2.42;;
54307;SDS011;40208;39.778;2.710;2024-03-25T15:51:52;20.02;;;2.95;;
54307;SDS011;40208;39.778;2.710;2024-03-25T15:54:37;13.48;;;2.50;;
54307;SDS011;40208;39.778;2.710;2024-03-25T15:57:22;11.88;;;2.65;;
54307;SDS011;40208;39.778;2.710;2024-03-25T16:00:07;7.95;;;2.15;;
54307;SDS011;40208;39.778;2.710;2024-03-25T16:02:54;13.32;;;2.83;;
54307;SDS011;40208;39.778;2.710;2024-03-25T16:05:41;11.88;;;3.42;;
54307;SDS011;40208;39.778;2.710;2024-03-25T16:08:25;29.67;;;3.33;;
54307;SDS011;40208;39.778;2.710;2024-03-25T16:11:16;9.93;;;2.58;;
54307;SDS011;40208;39.778;2.710;2024-03-25T16:14:02;13.35;;;3.00;;
54307;SDS011;40208;39.778;2.710;2024-03-25T16:16:47;8.95;;;3.03;;
54307;SDS011;40208;39.778;2.710;2024-03-25T16:19:31;18.60;;;3.13;;
54307;SDS011;40208;39.778;2.710;2024-03-25T16:22:16;8.02;;;2.30;;
54307;SDS011;40208;39.778;2.710;2024-03-25T16:25:02;10.25;;;2.42;;